createdAt,value
2022-11-22T00:01:20.533Z,22.68
2022-11-22T00:03:47.012Z,22.69
2022-11-22T00:06:13.487Z,22.67
2022-11-22T00:08:40.308Z,22.66
2022-11-22T00:11:06.765Z,22.62
2022-11-22T00:13:33.226Z,22.60
2022-11-22T00:16:03.401Z,22.61
2022-11-22T00:18:29.869Z,22.59
2022-11-22T00:20:56.614Z,22.56
2022-11-22T00:23:23.179Z,22.53
2022-11-22T00:25:49.744Z,22.53
2022-11-22T00:28:16.260Z,22.50
2022-11-22T00:30:42.729Z,22.50
2022-11-22T00:33:09.184Z,22.49
2022-11-22T00:35:35.657Z,22.46
2022-11-22T00:38:02.118Z,22.47
2022-11-22T00:40:28.609Z,22.45
2022-11-22T00:42:55.107Z,22.44
2022-11-22T00:45:21.565Z,22.39
2022-11-22T00:47:48.028Z,22.36
2022-11-22T00:50:14.514Z,22.37
2022-11-22T00:52:41.041Z,22.33
2022-11-22T00:55:07.817Z,22.31
2022-11-22T00:57:34.286Z,22.29
2022-11-22T01:00:00.760Z,22.24
2022-11-22T01:02:27.219Z,22.22
2022-11-22T01:04:54.449Z,22.21
2022-11-22T01:07:20.963Z,22.17
2022-11-22T01:09:47.441Z,22.15
2022-11-22T01:12:13.915Z,22.11
2022-11-22T01:14:40.496Z,22.11
2022-11-22T01:17:07.039Z,22.04
2022-11-22T01:19:33.503Z,22.05
2022-11-22T01:21:59.974Z,22.04
2022-11-22T01:24:26.469Z,22.02
2022-11-22T01:26:52.975Z,22.01
2022-11-22T01:29:19.716Z,22.01
2022-11-22T01:31:46.165Z,22.02
2022-11-22T01:34:13.203Z,21.97
2022-11-22T01:36:39.684Z,21.97
2022-11-22T01:39:08.962Z,21.94
2022-11-22T01:41:35.417Z,21.90
2022-11-22T01:44:19.013Z,21.90
2022-11-22T01:46:45.583Z,21.89
2022-11-22T01:49:47.670Z,21.84
2022-11-22T01:52:18.794Z,21.81
2022-11-22T01:54:47.750Z,21.78
2022-11-22T01:57:15.988Z,21.75
2022-11-22T01:59:44.896Z,21.75
2022-11-22T02:02:11.390Z,21.74
2022-11-22T02:04:37.841Z,21.76
2022-11-22T02:07:11.462Z,21.78
2022-11-22T02:09:38.286Z,21.78
2022-11-22T02:12:05.251Z,21.76
2022-11-22T02:14:31.803Z,21.77
2022-11-22T02:16:58.267Z,21.75
2022-11-22T02:19:40.415Z,21.75
2022-11-22T02:22:13.833Z,21.72
2022-11-22T02:24:46.595Z,21.71
2022-11-22T02:27:13.077Z,21.69
2022-11-22T02:29:39.552Z,21.68
2022-11-22T02:32:06.068Z,21.68
2022-11-22T02:34:42.435Z,21.65
2022-11-22T02:37:08.906Z,21.63
2022-11-22T02:39:35.371Z,21.63
2022-11-22T02:42:01.870Z,21.61
2022-11-22T02:44:28.335Z,21.60
2022-11-22T02:46:55.029Z,21.56
2022-11-22T02:49:23.827Z,21.53
2022-11-22T02:51:51.055Z,21.50
2022-11-22T02:54:17.547Z,21.48
2022-11-22T02:56:44.447Z,21.46
2022-11-22T02:59:10.921Z,21.44
2022-11-22T03:01:37.610Z,21.40
2022-11-22T03:04:04.221Z,21.39
2022-11-22T03:06:30.716Z,21.39
2022-11-22T03:08:57.215Z,21.40
2022-11-22T03:11:24.134Z,21.41
2022-11-22T03:13:50.749Z,21.41
2022-11-22T03:16:17.222Z,21.42
2022-11-22T03:18:43.728Z,21.41
2022-11-22T03:21:10.214Z,21.39
2022-11-22T03:23:36.720Z,21.38
2022-11-22T03:26:10.346Z,21.36
2022-11-22T03:28:36.867Z,21.34
2022-11-22T03:31:06.827Z,21.32
2022-11-22T03:33:34.464Z,21.30
2022-11-22T03:36:01.035Z,21.24
2022-11-22T03:38:27.507Z,21.24
2022-11-22T03:40:57.348Z,21.25
2022-11-22T03:43:23.953Z,21.31
2022-11-22T03:45:50.426Z,21.30
2022-11-22T03:48:17.416Z,21.28
2022-11-22T03:50:43.936Z,21.27
2022-11-22T03:53:10.510Z,21.27
2022-11-22T03:55:37.335Z,21.24
2022-11-22T03:58:04.505Z,21.21
2022-11-22T04:00:31.221Z,21.17
2022-11-22T04:02:57.709Z,21.19
2022-11-22T04:05:24.182Z,21.18
2022-11-22T04:07:56.007Z,21.17
2022-11-22T04:10:25.970Z,21.17
2022-11-22T04:12:54.502Z,21.14
2022-11-22T04:15:21.042Z,21.16
2022-11-22T04:17:48.574Z,21.14
2022-11-22T04:20:34.693Z,21.12
2022-11-22T04:23:05.014Z,21.11
2022-11-22T04:25:32.420Z,21.09
2022-11-22T04:27:59.005Z,21.08
2022-11-22T04:30:45.582Z,21.05
2022-11-22T04:33:12.419Z,21.04
2022-11-22T04:35:39.217Z,21.02
2022-11-22T04:38:05.739Z,20.98
2022-11-22T04:40:33.059Z,20.97
2022-11-22T04:43:18.118Z,20.95
2022-11-22T04:45:44.869Z,20.95
2022-11-22T04:48:12.399Z,20.95
2022-11-22T04:50:57.951Z,20.94
2022-11-22T04:53:24.473Z,20.95
2022-11-22T04:55:51.210Z,20.89
2022-11-22T04:58:17.718Z,20.87
2022-11-22T05:00:44.276Z,20.85
2022-11-22T05:03:10.841Z,20.82
2022-11-22T05:05:38.432Z,20.82
2022-11-22T05:08:05.427Z,20.86
2022-11-22T05:10:51.958Z,20.88
2022-11-22T05:13:18.571Z,20.86
2022-11-22T05:15:45.036Z,20.88
2022-11-22T05:18:11.518Z,20.86
2022-11-22T05:20:37.978Z,20.87
2022-11-22T05:23:23.060Z,20.87
2022-11-22T05:25:49.524Z,20.84
2022-11-22T05:28:16.007Z,20.83
2022-11-22T05:30:42.470Z,20.83
2022-11-22T05:33:09.027Z,20.81
2022-11-22T05:35:35.513Z,20.82
2022-11-22T05:38:01.985Z,20.81
2022-11-22T05:40:28.539Z,20.81
2022-11-22T05:42:55.040Z,20.79
2022-11-22T05:45:21.626Z,20.77
2022-11-22T05:47:48.103Z,20.77
2022-11-22T05:50:14.562Z,20.76
2022-11-22T05:52:41.041Z,20.73
2022-11-22T05:55:07.818Z,20.69
2022-11-22T05:57:34.318Z,20.64
2022-11-22T06:00:00.791Z,20.59
2022-11-22T06:02:27.382Z,20.55
2022-11-22T06:04:53.908Z,20.56
2022-11-22T06:07:20.449Z,20.55
2022-11-22T06:09:47.250Z,20.54
2022-11-22T06:12:13.733Z,20.60
2022-11-22T06:14:43.511Z,20.61
2022-11-22T06:17:10.247Z,20.61
2022-11-22T06:19:37.068Z,20.60
2022-11-22T06:22:03.556Z,20.59
2022-11-22T06:24:30.024Z,20.61
2022-11-22T06:26:56.497Z,20.60
2022-11-22T06:29:22.961Z,20.60
2022-11-22T06:31:49.419Z,20.61
2022-11-22T06:34:15.965Z,20.63
2022-11-22T06:36:42.525Z,20.63
2022-11-22T06:39:11.306Z,20.60
2022-11-22T06:41:37.790Z,20.60
2022-11-22T06:44:07.774Z,20.61
2022-11-22T06:46:34.296Z,20.61
2022-11-22T06:49:00.800Z,20.58
2022-11-22T06:51:28.940Z,20.59
2022-11-22T06:53:56.003Z,20.60
2022-11-22T06:56:27.169Z,20.58
2022-11-22T06:58:53.912Z,20.60
2022-11-22T07:01:24.586Z,20.59
2022-11-22T07:03:51.271Z,20.60
2022-11-22T07:06:18.542Z,20.60
2022-11-22T07:08:45.199Z,20.58
2022-11-22T07:11:22.755Z,20.59
2022-11-22T07:13:49.484Z,20.57
2022-11-22T07:16:17.647Z,20.56
2022-11-22T07:18:44.572Z,20.55
2022-11-22T07:21:15.361Z,20.53
2022-11-22T07:23:42.761Z,20.53
2022-11-22T07:26:09.563Z,20.49
2022-11-22T07:28:36.067Z,20.49
2022-11-22T07:31:04.839Z,20.46
2022-11-22T07:33:31.356Z,20.45
2022-11-22T07:36:06.913Z,20.40
2022-11-22T07:38:33.901Z,20.38
2022-11-22T07:41:00.637Z,20.46
2022-11-22T07:43:27.367Z,20.57
2022-11-22T07:45:53.826Z,20.73
2022-11-22T07:48:20.306Z,20.74
2022-11-22T07:50:46.771Z,20.81
2022-11-22T07:53:13.249Z,20.92
2022-11-22T07:55:39.701Z,20.97
2022-11-22T07:58:06.234Z,21.02
2022-11-22T08:00:32.697Z,21.04
2022-11-22T08:02:59.466Z,21.08
2022-11-22T08:05:26.185Z,21.10
2022-11-22T08:07:53.055Z,21.10
2022-11-22T08:10:19.796Z,21.10
2022-11-22T08:12:46.324Z,20.98
2022-11-22T08:15:13.568Z,20.92
2022-11-22T08:17:40.095Z,20.91
2022-11-22T08:20:09.016Z,20.91
2022-11-22T08:22:37.050Z,20.90
2022-11-22T08:25:03.759Z,20.84
2022-11-22T08:27:30.237Z,20.86
2022-11-22T08:29:56.711Z,20.77
2022-11-22T08:32:26.245Z,20.77
2022-11-22T08:34:52.783Z,20.75
2022-11-22T08:37:19.247Z,20.77
2022-11-22T08:39:45.743Z,20.80
2022-11-22T08:42:12.335Z,20.83
2022-11-22T08:44:38.842Z,20.86
2022-11-22T08:47:05.316Z,20.88
2022-11-22T08:49:32.297Z,20.86
2022-11-22T08:51:58.997Z,20.90
2022-11-22T08:54:25.491Z,20.86
2022-11-22T08:56:51.956Z,20.90
2022-11-22T08:59:18.531Z,20.84
2022-11-22T09:01:45.134Z,20.83
2022-11-22T09:04:11.837Z,20.79
2022-11-22T09:09:41.005Z,20.82
2022-11-22T09:12:07.633Z,20.84
2022-11-22T09:14:34.385Z,20.86
2022-11-22T09:17:00.846Z,20.88
2022-11-22T09:19:27.325Z,20.91
2022-11-22T09:21:53.814Z,20.91
2022-11-22T09:24:20.289Z,20.92
2022-11-22T09:26:46.746Z,20.91
2022-11-22T09:29:13.294Z,20.92
2022-11-22T09:31:39.766Z,20.95
2022-11-22T09:34:07.078Z,20.95
2022-11-22T09:36:33.539Z,20.99
2022-11-22T09:39:00.056Z,20.98
2022-11-22T09:41:40.374Z,20.99
2022-11-22T09:44:54.376Z,21.00
2022-11-22T09:47:58.998Z,21.00
2022-11-22T09:50:31.107Z,20.99
2022-11-22T09:53:37.216Z,20.99
2022-11-22T09:56:05.315Z,20.98
2022-11-22T09:58:53.490Z,21.01
2022-11-22T10:01:25.936Z,21.04
2022-11-22T10:04:05.483Z,21.05
2022-11-22T10:06:36.109Z,21.07
2022-11-22T10:09:26.298Z,21.11
2022-11-22T10:12:17.654Z,21.13
2022-11-22T10:14:52.541Z,21.14
2022-11-22T10:17:49.559Z,21.14
2022-11-22T10:20:19.726Z,21.12
2022-11-22T10:22:46.260Z,21.10
2022-11-22T10:25:41.684Z,21.10
2022-11-22T10:28:41.620Z,21.10
2022-11-22T10:31:12.300Z,21.07
2022-11-22T10:33:48.482Z,21.08
2022-11-22T10:36:39.336Z,21.08
2022-11-22T10:39:34.221Z,21.06
2022-11-22T10:42:08.572Z,21.06
2022-11-22T10:44:34.918Z,21.08
2022-11-22T10:47:12.930Z,21.09
2022-11-22T10:49:45.456Z,21.08
2022-11-22T10:52:37.096Z,21.05
2022-11-22T10:55:09.634Z,21.08
2022-11-22T10:57:48.508Z,20.74
2022-11-22T11:00:22.257Z,20.91
2022-11-22T11:03:03.050Z,21.08
2022-11-22T11:09:47.915Z,21.28
2022-11-22T11:11:42.573Z,21.36
2022-11-22T11:14:18.208Z,21.40
2022-11-22T11:16:44.666Z,21.48
2022-11-22T11:19:11.033Z,21.49
2022-11-22T11:21:37.571Z,21.54
2022-11-22T11:24:10.689Z,21.65
2022-11-22T11:26:37.164Z,21.74
2022-11-22T11:29:18.567Z,21.75
2022-11-22T11:32:04.633Z,21.84
2022-11-22T11:34:31.341Z,21.98
2022-11-22T11:36:58.066Z,21.99
2022-11-22T11:39:28.643Z,21.97
2022-11-22T11:41:55.465Z,21.98
2022-11-22T11:44:36.304Z,22.00
2022-11-22T11:47:03.546Z,22.10
2022-11-22T11:49:34.226Z,22.15
2022-11-22T11:52:04.337Z,22.24
2022-11-22T11:54:54.317Z,22.23
2022-11-22T11:57:36.037Z,22.24
2022-11-22T12:00:05.176Z,22.30
2022-11-22T12:02:41.115Z,22.34
2022-11-22T12:05:13.287Z,22.30
2022-11-22T12:07:44.751Z,22.16
2022-11-22T12:10:26.604Z,22.05
2022-11-22T12:13:00.198Z,22.02
2022-11-22T12:16:00.205Z,21.95
2022-11-22T12:19:00.589Z,21.93
2022-11-22T12:21:39.086Z,21.87
2022-11-22T12:24:45.197Z,21.81
2022-11-22T12:27:04.307Z,21.76
2022-11-22T12:29:33.297Z,21.80
2022-11-22T12:32:02.869Z,21.87
2022-11-22T12:34:37.757Z,21.99
2022-11-22T12:37:17.872Z,22.02
2022-11-22T12:39:47.851Z,22.01
2022-11-22T12:42:27.572Z,21.98
2022-11-22T12:45:05.850Z,21.95
2022-11-22T12:47:41.520Z,21.93
2022-11-22T12:50:10.523Z,21.91
2022-11-22T12:52:43.640Z,21.92
2022-11-22T12:55:17.416Z,21.89
2022-11-22T12:58:08.307Z,21.89
2022-11-22T13:00:36.111Z,21.87
2022-11-22T13:03:12.413Z,21.92
2022-11-22T13:05:50.097Z,21.94
2022-11-22T13:08:28.930Z,21.92
2022-11-22T13:10:58.805Z,21.89
2022-11-22T13:13:28.179Z,21.83
2022-11-22T13:15:55.282Z,21.82
2022-11-22T13:18:28.006Z,21.77
2022-11-22T13:21:21.680Z,21.74
2022-11-22T13:24:03.303Z,21.73
2022-11-22T13:27:04.914Z,21.65
2022-11-22T13:29:32.840Z,21.61
2022-11-22T13:32:11.422Z,21.60
2022-11-22T13:34:40.399Z,21.56
2022-11-22T13:37:17.906Z,21.52
2022-11-22T13:39:46.204Z,21.50
2022-11-22T13:42:32.866Z,21.52
2022-11-22T13:44:59.188Z,21.62
2022-11-22T13:47:28.571Z,21.75
2022-11-22T13:49:55.109Z,21.80
2022-11-22T13:52:22.149Z,21.80
2022-11-22T13:54:53.012Z,21.79
2022-11-22T13:57:29.352Z,21.81
2022-11-22T14:00:14.171Z,21.78
2022-11-22T14:02:53.582Z,21.70
2022-11-22T14:05:21.303Z,21.69
2022-11-22T14:07:54.596Z,21.66
2022-11-22T14:10:50.038Z,21.69
2022-11-22T14:13:34.515Z,21.62
2022-11-22T14:16:07.209Z,21.60
2022-11-22T14:18:37.507Z,21.59
2022-11-22T14:21:05.683Z,21.56
2022-11-22T14:24:11.268Z,21.53
2022-11-22T14:27:08.146Z,21.50
2022-11-22T14:29:54.086Z,21.48
2022-11-22T14:32:24.767Z,21.42
2022-11-22T14:35:03.418Z,21.44
2022-11-22T14:37:29.899Z,21.41
2022-11-22T14:40:08.596Z,21.40
2022-11-22T14:42:37.838Z,21.34
2022-11-22T14:45:10.365Z,21.32
2022-11-22T14:47:40.837Z,21.30
2022-11-22T14:50:27.935Z,21.28
2022-11-22T14:53:04.432Z,21.24
2022-11-22T14:55:32.283Z,21.22
2022-11-22T14:58:01.147Z,21.32
2022-11-22T15:00:53.901Z,21.23
2022-11-22T15:03:45.375Z,21.40
2022-11-22T15:09:09.895Z,21.55
2022-11-22T15:09:52.488Z,21.57
2022-11-22T15:12:38.490Z,21.56
2022-11-22T15:59:36.428Z,21.02
2022-11-22T16:02:02.974Z,21.00
2022-11-22T16:04:31.765Z,20.95
2022-11-22T16:06:59.860Z,20.93
2022-11-22T16:09:33.009Z,20.93
2022-11-22T16:12:04.196Z,20.91
2022-11-22T16:14:43.680Z,20.90
2022-11-22T16:17:23.888Z,20.89
2022-11-22T16:19:50.611Z,20.88
2022-11-22T16:22:30.782Z,20.87
2022-11-22T16:25:22.802Z,20.87
2022-11-22T16:27:49.310Z,20.87
2022-11-22T16:30:20.678Z,20.84
2022-11-22T16:32:53.625Z,20.84
2022-11-22T16:35:29.532Z,20.84
2022-11-22T16:37:56.498Z,20.81
2022-11-22T16:40:22.993Z,20.84
2022-11-22T16:42:49.472Z,20.93
2022-11-22T16:45:19.937Z,20.90
2022-11-22T16:47:54.626Z,21.01
2022-11-22T16:50:30.191Z,21.18
2022-11-22T16:53:01.409Z,21.38
2022-11-22T16:55:29.116Z,21.60
2022-11-22T16:57:55.573Z,21.65
2022-11-22T17:00:22.052Z,21.78
2022-11-22T17:02:48.546Z,21.87
2022-11-22T17:05:16.291Z,21.97
2022-11-22T17:07:42.835Z,22.01
2022-11-22T17:10:09.596Z,22.08
2022-11-22T17:12:36.081Z,22.19
2022-11-22T17:15:02.545Z,22.29
2022-11-22T17:17:29.009Z,22.37
2022-11-22T17:19:55.460Z,22.35
2022-11-22T17:22:21.939Z,22.42
2022-11-22T17:24:48.395Z,22.52
2022-11-22T17:27:14.930Z,22.58
2022-11-22T17:29:50.754Z,22.71
2022-11-22T17:32:17.527Z,22.77
2022-11-22T17:34:43.990Z,22.88
2022-11-22T17:37:13.690Z,22.94
2022-11-22T17:39:40.222Z,22.95
2022-11-22T17:42:06.811Z,22.95
2022-11-22T17:44:34.077Z,22.97
2022-11-22T17:47:00.625Z,23.04
2022-11-22T17:49:27.323Z,22.91
2022-11-22T17:51:53.914Z,22.96
2022-11-22T17:54:20.415Z,22.91
2022-11-22T17:56:46.935Z,22.92
2022-11-22T17:59:13.414Z,22.94
2022-11-22T18:01:39.885Z,23.06
2022-11-22T18:04:06.394Z,23.05
2022-11-22T18:06:32.960Z,23.00
2022-11-22T18:09:00.766Z,23.02
2022-11-22T18:11:27.262Z,23.04
2022-11-22T18:13:53.745Z,23.03
2022-11-22T18:16:20.939Z,23.13
2022-11-22T18:19:02.806Z,22.90
2022-11-22T18:21:30.447Z,23.11
2022-11-22T18:23:58.280Z,23.06
2022-11-22T18:26:39.291Z,23.01
2022-11-22T18:31:53.587Z,23.02
2022-11-22T18:34:21.178Z,23.07
2022-11-22T18:37:04.380Z,23.03
2022-11-22T18:39:33.654Z,23.00
2022-11-22T18:42:00.729Z,22.88
2022-11-22T18:44:27.314Z,22.86
2022-11-22T18:46:53.851Z,22.97
2022-11-22T18:49:20.321Z,23.05
2022-11-22T18:51:46.798Z,23.08
2022-11-22T18:54:13.371Z,22.92
2022-11-22T18:56:40.655Z,22.98
2022-11-22T18:59:07.963Z,22.99
2022-11-22T19:01:34.654Z,23.02
2022-11-22T19:04:01.562Z,23.01
2022-11-22T19:06:28.060Z,23.01
2022-11-22T19:08:55.301Z,22.98
2022-11-22T19:11:21.891Z,23.02
2022-11-22T19:13:48.380Z,23.07
2022-11-22T19:16:16.451Z,23.08
2022-11-22T19:18:43.500Z,23.11
2022-11-22T19:21:14.011Z,23.18
2022-11-22T19:23:41.068Z,23.42
2022-11-22T19:26:09.165Z,23.47
2022-11-22T19:28:35.776Z,23.58
2022-11-22T19:31:12.551Z,23.47
2022-11-22T19:33:39.383Z,23.55
2022-11-22T19:36:36.489Z,23.67
2022-11-22T19:39:07.538Z,23.82
2022-11-22T19:41:34.088Z,24.02
2022-11-22T19:44:00.752Z,24.12
2022-11-22T19:46:27.483Z,24.22
2022-11-22T19:48:55.166Z,24.02
2022-11-22T19:51:21.898Z,23.47
2022-11-22T19:53:48.409Z,23.54
2022-11-22T19:56:16.223Z,23.43
2022-11-22T19:58:43.376Z,23.53
2022-11-22T20:01:11.168Z,23.60
2022-11-22T20:03:38.335Z,23.67
2022-11-22T20:06:06.045Z,23.71
2022-11-22T20:08:32.518Z,23.77
2022-11-22T20:11:06.682Z,23.82
2022-11-22T20:13:37.139Z,23.93
2022-11-22T20:16:26.062Z,24.04
2022-11-22T20:18:55.821Z,24.11
2022-11-22T20:21:22.781Z,24.12
2022-11-22T20:23:52.515Z,24.12
2022-11-22T20:26:19.407Z,24.09
2022-11-22T20:28:48.091Z,24.06
2022-11-22T20:31:16.042Z,24.10
2022-11-22T20:33:44.466Z,24.17
2022-11-22T20:36:12.561Z,24.18
2022-11-22T20:38:58.582Z,24.15
2022-11-22T20:41:26.735Z,24.21
2022-11-22T20:43:53.277Z,24.09
2022-11-22T20:46:21.124Z,24.06
2022-11-22T20:48:48.030Z,24.09
2022-11-22T20:51:18.913Z,24.09
2022-11-22T20:53:45.491Z,24.09
2022-11-22T20:56:11.997Z,24.10
2022-11-22T20:58:38.462Z,24.11
2022-11-22T21:01:18.397Z,24.09
2022-11-22T21:03:45.099Z,24.19
2022-11-22T21:06:11.910Z,24.15
2022-11-22T21:08:38.513Z,24.10
2022-11-22T21:11:14.844Z,24.06
2022-11-22T21:13:41.675Z,23.98
2022-11-22T21:16:23.382Z,23.89
2022-11-22T21:19:01.459Z,23.77
2022-11-22T21:21:28.421Z,23.93
2022-11-22T21:23:56.255Z,23.98
2022-11-22T21:26:23.230Z,23.96
2022-11-22T21:28:49.959Z,24.00
2022-11-22T21:31:16.538Z,23.99
2022-11-22T21:33:43.023Z,24.01
2022-11-22T21:36:09.831Z,23.96
2022-11-22T21:38:38.276Z,23.94
2022-11-22T21:41:37.736Z,23.96
2022-11-22T21:43:54.741Z,23.94
2022-11-22T21:46:21.284Z,23.99
2022-11-22T21:48:51.737Z,23.96
2022-11-22T21:51:18.224Z,23.95
2022-11-22T21:53:44.823Z,23.90
2022-11-22T21:56:11.276Z,24.12
2022-11-22T21:58:37.743Z,24.43
2022-11-22T22:01:10.855Z,24.59
2022-11-22T22:03:40.364Z,24.65
2022-11-22T22:06:07.077Z,24.20
2022-11-22T22:08:33.999Z,24.34
2022-11-22T22:11:02.386Z,24.54
2022-11-22T22:13:30.705Z,24.64
2022-11-22T22:15:58.243Z,24.64
2022-11-22T22:18:32.523Z,24.61
2022-11-22T22:21:02.474Z,24.55
2022-11-22T22:23:29.006Z,24.47
2022-11-22T22:26:02.736Z,24.49
2022-11-22T22:28:30.248Z,24.46
2022-11-22T22:31:06.971Z,24.43
2022-11-22T22:33:34.028Z,24.43
2022-11-22T22:36:00.522Z,24.45
2022-11-22T22:38:27.065Z,24.29
2022-11-22T22:40:55.025Z,24.34
2022-11-22T22:43:22.894Z,24.38
2022-11-22T22:45:52.220Z,24.33
2022-11-22T22:48:18.750Z,24.33
2022-11-22T22:50:45.248Z,24.31
2022-11-22T22:53:11.776Z,24.28
2022-11-22T22:55:38.234Z,24.23
2022-11-22T22:58:04.700Z,24.22
2022-11-22T23:00:31.173Z,24.22
2022-11-22T23:02:57.689Z,24.21
2022-11-22T23:05:24.203Z,24.17
2022-11-22T23:07:50.724Z,24.17
2022-11-22T23:10:17.221Z,24.16
2022-11-22T23:12:43.680Z,24.12
2022-11-22T23:15:10.309Z,24.13
2022-11-22T23:17:37.006Z,24.12
2022-11-22T23:20:03.759Z,24.01
2022-11-22T23:22:30.375Z,23.64
2022-11-22T23:24:56.829Z,23.45
2022-11-22T23:27:23.338Z,23.38
2022-11-22T23:29:49.805Z,23.38
2022-11-22T23:32:16.280Z,23.35
2022-11-22T23:34:42.749Z,23.31
2022-11-22T23:37:09.231Z,23.26
2022-11-22T23:39:35.706Z,23.24
2022-11-22T23:42:02.186Z,23.19
2022-11-22T23:44:28.655Z,23.17
2022-11-22T23:46:55.105Z,23.14
2022-11-22T23:49:21.573Z,23.08
2022-11-22T23:51:50.207Z,23.06
2022-11-22T23:54:16.998Z,23.02
2022-11-22T23:56:43.466Z,23.02
2022-11-22T23:59:09.952Z,22.97
